Flight Track Log - Related Links

Times and Time Zones

All times are in EST time to prevent confusion due to time zone crossing. See the TAM3195 flight status page for this flight to view local times or setup timezone preferences in your user account.

Time Position Orientation Groundspeed Altitude Reporting Facility
EST Latitude Longitude Course Direction KTS MPH feet Rate Location/Type
Thu 11:21:00 AM -21.2784 -41.3743 225° Southwest  Level Estimated
Thu 11:22:00 AM -21.3268 -41.4265 225° Southwest  Level Estimated
Thu 11:23:00 AM -21.3752 -41.4787 225° Southwest  Level Estimated
Thu 11:24:00 AM -21.4236 -41.5310 225° Southwest  Level Estimated
Thu 11:25:00 AM -21.4719 -41.5833 225° Southwest  Level Estimated
Thu 11:26:00 AM -21.5203 -41.6356 225° Southwest  Level Estimated
Thu 11:27:00 AM -21.5686 -41.6879 225° Southwest  Level Estimated
Thu 11:28:00 AM -21.6169 -41.7403 225° Southwest  Level Estimated
Thu 11:29:00 AM -21.6652 -41.7927 225° Southwest  Level Estimated
Thu 11:30:00 AM -21.7135 -41.8452 225° Southwest  Level Estimated
Thu 11:31:00 AM -21.7618 -41.8977 225° Southwest  Level Estimated
Thu 11:32:00 AM -21.8100 -41.9502 225° Southwest  Level Estimated
Thu 11:33:00 AM -21.8583 -42.0028 225° Southwest  Level Estimated
Thu 11:34:00 AM -21.9065 -42.0554 225° Southwest  Level Estimated
Thu 11:35:00 AM -21.9547 -42.1080 225° Southwest  Level Estimated
Thu 11:36:00 AM -22.0029 -42.1607 225° Southwest  Level Estimated
Thu 11:37:00 AM -22.0510 -42.2134 225° Southwest  Level Estimated
Thu 11:38:00 AM -22.0992 -42.2661 225° Southwest  Level Estimated
Thu 11:39:00 AM -22.1473 -42.3189 225° Southwest  Level Estimated
Thu 11:40:00 AM -22.1954 -42.3717 225° Southwest  Level Estimated
Thu 11:41:00 AM -22.2435 -42.4246 225° Southwest  Level Estimated
Thu 11:42:00 AM -22.2916 -42.4775 225° Southwest  Level Estimated
Thu 11:43:00 AM -22.3397 -42.5304 226° Southwest  Level Estimated
Thu 11:44:00 AM -22.3877 -42.5833 226° Southwest  Level Estimated
Thu 11:45:00 AM -22.4357 -42.6363 226° Southwest  Level Estimated
Thu 11:46:00 AM -22.4838 -42.6894 226° Southwest  Level Estimated
Thu 11:47:00 AM -22.5318 -42.7424 226° Southwest  Level Estimated
Thu 11:48:00 AM -22.5797 -42.7955 226° Southwest  Level Estimated
Thu 11:49:00 AM -22.6277 -42.8487 226° Southwest  Level Estimated
Thu 11:50:00 AM -22.6756 -42.9018 226° Southwest  Level Estimated
Thu 11:51:00 AM -22.7236 -42.9551 226° Southwest  Level Estimated
Thu 11:52:00 AM -22.7715 -43.0083 226° Southwest  Level Estimated
Thu 11:53:00 AM -22.8194 -43.0616 226° Southwest  Level Estimated
Thu 11:54:00 AM -22.8672 -43.1149 226° Southwest  Level Estimated
Thu 11:55:00 AM -22.9105 -43.1631 226° Southwest  Level Estimated
Thu 11:56:00 AM -22.9105 -43.1631 250° West  Level Estimated
Thu 11:57:00 AM -22.9105 -43.1631 250° West  Level Estimated
Thu 11:58:00 AM -22.9105 -43.1631 250° West  Level Estimated
Thu 11:59:00 AM -22.9105 -43.1631 250° West  Level Estimated
Thu 12:00:00 PM -22.9105 -43.1631 250° West  Level Estimated
Thu 12:01:00 PM -22.9105 -43.1631 250° West  Level Estimated
Thu 12:02:00 PM -22.9105 -43.1631 250° West  Level Estimated
Thu 12:03:00 PM -22.9105 -43.1631 250° West  Level Estimated
Thu 12:04:00 PM -22.9105 -43.1631 250° West  Level Estimated
Thu 12:05:00 PM -22.9105 -43.1631 250° West  Level Estimated
Thu 12:06:00 PM -22.9105 -43.1631 250° West  Level Estimated
Thu 12:07:00 PM -22.9105 -43.1631 250° West  Level Estimated
Thu 12:08:00 PM -22.9105 -43.1631 250° West  Level Estimated
Thu 12:09:00 PM -22.9105 -43.1631 250° West  Level Estimated
Thu 12:10:00 PM -22.9105 -43.1631 250° West  Level Estimated

Login

Don't have an account? Register now (free) for customized features, flight alerts, and more!